Portada
METAR-TAF:

METAR-TAF

Aeropuertos :

Albert Lea, Minnesota, Estados Unidos

latitud: 43-41N, longitud: 093-22W, altitud: 383 m

Observación

El informe se hizo hace 15 minutos, a las 07:15 UTC
Viento calma
Temperatura 9°C
Humedad 81%
Presión 1025 hPa
Visibilidad: 16.1 km
Cielo despejado

METAR: KAEL 310715Z AUTO 00000KT 10SM CLR 09/06 A3028 RMK AO2

Hora: 02:30 (07:30 UTC)


TAF: falta

Observaciones y pronósticos meteorológicos de más de 4000 aeropuertos (mensajes METAR y TAF).

Los puntos amarillos y rojos representan las estaciones disponibles.

Ponga el ratón en el punto deseado para ver el nombre de la estación.

Haga clic para ver las observaciones y los pronósticos meteorológicos.

Para cambiar el mapa : haga clic en los botones verdes con una cruz de color negro para hacer un zoom, en el botón verde con un guión para alejar o en las flechas verdes para mapas adyacentes.


METAR-TAF: